Time;durP1;ratioP1;P1;durP2;ratioP2;P2;SDS_P1;SDS_P2;PMS_P1;PMS_P2;Temp;Humidity;BMP_temperature;BMP_pressure;BME280_temperature;BME280_humidity;BME280_pressure;Samples;Min_cycle;Max_cycle;Signal;HPM_P1;HPM_P2
2021/03/19 00:00:42;;;;;;;18.90;13.65;;;;;;;2.22;72.60;96607.50;4977580;28;20054;-76
2021/03/19 00:03:10;;;;;;;16.40;12.88;;;;;;;2.21;72.57;96596.41;4977471;28;20105;-75
2021/03/19 00:05:37;;;;;;;18.98;14.02;;;;;;;2.24;72.88;96603.06;4977235;28;20570;-76
2021/03/19 00:08:04;;;;;;;17.42;12.77;;;;;;;2.24;72.92;96601.28;4977680;28;20054;-75
2021/03/19 00:10:32;;;;;;;17.45;13.00;;;;;;;2.25;72.75;96596.94;4977706;28;20047;-76
2021/03/19 00:13:02;;;;;;;17.20;12.82;;;;;;;2.25;72.67;96602.09;4976925;28;20055;-75
2021/03/19 00:15:30;;;;;;;17.13;13.00;;;;;;;2.24;72.67;96593.56;4977780;28;20050;-76
2021/03/19 00:17:57;;;;;;;16.75;11.48;;;;;;;2.23;72.60;96597.09;4977454;28;20047;-75
2021/03/19 00:20:31;;;;;;;17.02;12.63;;;;;;;2.23;72.80;96593.69;4977511;28;20501;-77
2021/03/19 00:22:59;;;;;;;18.17;12.82;;;;;;;2.20;72.40;96583.66;4977126;28;20050;-76
2021/03/19 00:25:25;;;;;;;16.67;13.10;;;;;;;2.17;72.54;96591.66;4976755;28;20057;-75
2021/03/19 00:27:53;;;;;;;20.13;14.10;;;;;;;2.17;72.61;96589.88;4977600;28;20075;-76
2021/03/19 00:30:22;;;;;;;16.05;12.50;;;;;;;2.17;72.70;96589.88;4977518;28;20142;-75
2021/03/19 00:32:49;;;;;;;17.13;12.50;;;;;;;2.16;72.40;96575.38;4976735;28;20055;-75
2021/03/19 00:35:16;;;;;;;16.20;11.15;;;;;;;2.15;72.48;96575.53;4977023;28;20501;-76
2021/03/19 00:37:43;;;;;;;14.68;10.70;;;;;;;2.13;72.53;96577.41;4976932;28;20589;-76
2021/03/19 00:40:12;;;;;;;15.63;12.18;;;;;;;2.10;72.65;96583.66;4976520;28;20477;-76
2021/03/19 00:42:40;;;;;;;15.88;11.77;;;;;;;2.11;72.81;96581.88;4976781;28;20077;-75
2021/03/19 00:45:11;;;;;;;17.77;12.55;;;;;;;2.11;73.05;96574.97;4976771;28;20076;-76
2021/03/19 00:47:38;;;;;;;15.43;11.20;;;;;;;2.12;72.88;96574.03;4976826;28;20058;-76
2021/03/19 00:50:07;;;;;;;17.50;12.15;;;;;;;2.12;72.60;96573.19;4976801;28;20121;-75
2021/03/19 00:52:34;;;;;;;17.38;11.57;;;;;;;2.10;72.74;96573.34;4976842;28;20061;-76
2021/03/19 00:55:03;;;;;;;16.73;11.50;;;;;;;2.10;72.99;96572.50;4976263;28;20050;-76
2021/03/19 00:57:29;;;;;;;18.48;12.23;;;;;;;2.10;73.04;96573.34;4976655;28;20050;-75
2021/03/19 00:59:56;;;;;;;17.23;12.52;;;;;;;2.10;72.63;96567.38;4976714;28;20054;-75
2021/03/19 01:02:22;;;;;;;18.40;12.88;;;;;;;2.11;72.86;96569.00;4976214;28;20051;-75
2021/03/19 01:04:49;;;;;;;17.13;13.63;;;;;;;2.13;72.59;96574.84;4976094;28;20105;-76
2021/03/19 01:07:15;;;;;;;19.95;13.75;;;;;;;2.13;72.48;96573.06;4976480;28;20053;-75
2021/03/19 01:09:42;;;;;;;19.05;13.30;;;;;;;2.14;72.54;96568.75;4976377;28;20138;-75
2021/03/19 01:12:09;;;;;;;19.83;13.52;;;;;;;2.14;72.21;96573.88;4976356;28;20512;-75
2021/03/19 01:14:36;;;;;;;16.95;12.18;;;;;;;2.13;72.16;96567.13;4975923;28;20083;-75
2021/03/19 01:17:03;;;;;;;18.35;12.82;;;;;;;2.12;72.39;96570.63;4976399;28;20053;-75
2021/03/19 01:19:29;;;;;;;17.38;12.18;;;;;;;2.09;72.02;96576.03;4976605;28;20054;-75
2021/03/19 01:21:56;;;;;;;19.50;13.77;;;;;;;2.05;72.25;96578.84;4976445;28;20105;-76
2021/03/19 01:24:23;;;;;;;21.60;14.40;;;;;;;2.02;72.20;96568.03;4976021;28;20046;-76
2021/03/19 01:26:49;;;;;;;20.48;13.43;;;;;;;1.99;72.31;96566.53;4976427;28;20073;-76
2021/03/19 01:29:17;;;;;;;17.85;13.48;;;;;;;1.97;72.60;96568.41;4976335;28;20513;-76
2021/03/19 01:31:43;;;;;;;19.67;13.65;;;;;;;1.96;72.45;96566.78;4976262;28;20061;-76
2021/03/19 01:34:10;;;;;;;19.42;14.30;;;;;;;1.95;72.28;96562.59;4975787;28;20447;-76
2021/03/19 01:36:36;;;;;;;17.88;13.50;;;;;;;1.98;72.43;96558.94;4976329;28;20054;-76
2021/03/19 01:39:03;;;;;;;19.20;14.27;;;;;;;1.98;72.54;96559.75;4976269;28;20042;-76
2021/03/19 01:41:30;;;;;;;20.50;13.00;;;;;;;1.98;72.34;96556.38;4975922;28;20066;-75
2021/03/19 01:43:57;;;;;;;19.88;14.45;;;;;;;1.96;72.48;96550.53;4975606;28;20056;-75
2021/03/19 01:47:01;;;;;;;18.42;13.50;;;;;;;1.96;73.02;96555.69;4975950;28;20137;-76
2021/03/19 01:50:05;;;;;;;20.02;14.32;;;;;;;1.97;73.18;96557.31;4975228;28;20047;-76
2021/03/19 01:53:09;;;;;;;21.13;13.90;;;;;;;1.97;72.87;96545.25;4975481;28;20084;-76
2021/03/19 01:56:13;;;;;;;23.05;14.13;;;;;;;1.97;72.65;96536.75;4975704;28;20523;-76
2021/03/19 01:59:17;;;;;;;20.90;16.00;;;;;;;1.97;72.56;96537.53;4975731;28;20050;-77
2021/03/19 02:02:35;;;;;;;22.02;15.55;;;;;;;1.93;72.60;96538.75;4975839;28;20138;-76
2021/03/19 02:05:40;;;;;;;20.38;13.57;;;;;;;1.89;72.73;96539.13;4935042;29;20047;-76
2021/03/19 02:08:44;;;;;;;20.42;13.55;;;;;;;1.86;73.02;96535.06;4934768;29;20058;-76
2021/03/19 02:11:48;;;;;;;20.30;14.55;;;;;;;1.87;73.22;96536.69;4975142;28;20520;-77
2021/03/19 02:14:51;;;;;;;20.00;14.15;;;;;;;1.87;72.79;96541.81;4975274;28;20055;-76
2021/03/19 02:17:36;;;;;;;;;;;;;;;1.90;72.83;96540.75;4975664;28;20051;-77
2021/03/19 02:20:40;;;;;;;20.92;13.32;;;;;;;1.88;73.10;96548.63;4975628;28;20004;-77
2021/03/19 02:23:44;;;;;;;21.95;15.07;;;;;;;1.85;72.81;96543.72;4975334;28;20051;-77
2021/03/19 02:26:29;;;;;;;;;;;;;;;1.85;72.97;96546.28;4976127;28;20052;-76
2021/03/19 02:29:38;;;;;;;20.40;14.35;;;;;;;1.81;72.82;96547.47;4975570;28;20293;-76
2021/03/19 02:32:10;;;;;;;18.73;13.13;;;;;;;1.81;72.63;96543.16;4937831;28;20538;-77
2021/03/19 02:34:41;;;;;;;18.60;13.05;;;;;;;1.81;72.94;96556.00;4974644;28;20043;-77
2021/03/19 02:37:11;;;;;;;19.83;13.85;;;;;;;1.81;72.70;96552.63;4974842;28;20081;-76
2021/03/19 02:39:39;;;;;;;19.08;13.73;;;;;;;1.80;72.67;96548.44;4974882;28;20050;-76
2021/03/19 02:42:07;;;;;;;17.52;13.57;;;;;;;1.79;73.11;96550.19;4974819;28;20050;-78
2021/03/19 02:44:35;;;;;;;20.40;13.80;;;;;;;1.78;73.29;96556.28;4973049;28;20061;-79
2021/03/19 02:47:03;;;;;;;25.00;15.25;;;;;;;1.79;72.94;96549.38;4973120;28;20138;-77
2021/03/19 02:49:31;;;;;;;20.20;13.98;;;;;;;1.75;73.11;96551.41;4974465;28;20051;-76
2021/03/19 02:52:16;;;;;;;20.00;14.02;;;;;;;1.75;73.41;96542.84;4974972;28;20061;-77
2021/03/19 02:54:43;;;;;;;22.25;15.65;;;;;;;1.74;73.13;96541.22;4974048;28;20438;-77
2021/03/19 02:57:10;;;;;;;21.73;15.32;;;;;;;1.74;73.33;96546.38;4974724;28;20115;-76
2021/03/19 02:59:36;;;;;;;18.95;13.88;;;;;;;1.74;73.81;96541.22;4975284;28;20046;-77
2021/03/19 03:02:03;;;;;;;20.08;14.65;;;;;;;1.75;73.53;96535.13;4973347;28;20061;-76
2021/03/19 03:04:31;;;;;;;23.25;14.52;;;;;;;1.74;73.59;96536.09;4973131;28;20083;-76
2021/03/19 03:06:59;;;;;;;23.60;14.65;;;;;;;1.72;73.40;96530.25;4973269;28;20047;-76
2021/03/19 03:09:29;;;;;;;20.75;15.35;;;;;;;1.74;73.34;96530.94;4973490;28;20078;-77
2021/03/19 03:11:56;;;;;;;19.40;14.25;;;;;;;1.76;73.60;96529.06;4974087;28;20421;-77
2021/03/19 03:14:26;;;;;;;20.73;15.10;;;;;;;1.77;73.53;96528.94;4973463;28;20061;-76
2021/03/19 03:16:57;;;;;;;19.42;14.15;;;;;;;1.79;73.75;96528.78;4974235;28;20133;-76
2021/03/19 03:19:24;;;;;;;19.10;14.05;;;;;;;1.79;73.53;96528.78;4974685;28;20098;-76
2021/03/19 03:21:53;;;;;;;20.10;14.35;;;;;;;1.80;73.48;96527.88;4974018;28;20050;-77
2021/03/19 03:24:20;;;;;;;20.92;14.43;;;;;;;1.81;73.57;96532.06;4974661;28;20046;-77
2021/03/19 03:26:48;;;;;;;22.40;14.23;;;;;;;1.81;73.43;96532.06;4974238;28;20572;-79
2021/03/19 03:29:14;;;;;;;19.20;13.70;;;;;;;1.81;73.44;96534.63;4977420;28;20070;-79
2021/03/19 03:31:42;;;;;;;21.48;14.25;;;;;;;1.79;73.48;96537.34;4979083;28;20054;-78
2021/03/19 03:34:10;;;;;;;21.02;14.18;;;;;;;1.79;73.78;96539.91;4977946;28;20437;-77
2021/03/19 03:36:41;;;;;;;20.63;14.63;;;;;;;1.78;73.72;96527.19;4978246;28;20061;-77
2021/03/19 03:39:12;;;;;;;20.95;14.30;;;;;;;1.78;73.90;96527.97;4977966;28;20051;-76
2021/03/19 03:41:40;;;;;;;21.63;15.10;;;;;;;1.77;73.97;96520.38;4978334;28;20501;-78
2021/03/19 03:44:08;;;;;;;22.08;14.80;;;;;;;1.78;73.79;96525.41;4977668;28;20050;-77
2021/03/19 03:46:34;;;;;;;21.15;15.73;;;;;;;1.80;74.15;96525.28;4978096;28;20456;-78
2021/03/19 03:49:01;;;;;;;26.30;16.80;;;;;;;1.81;74.07;96516.63;4977876;28;20054;-77
2021/03/19 03:51:29;;;;;;;20.88;14.65;;;;;;;1.80;73.87;96520.16;4977925;28;20046;-79
2021/03/19 03:53:56;;;;;;;22.98;15.60;;;;;;;1.80;74.08;96517.56;4977257;28;20066;-78
2021/03/19 03:56:26;;;;;;;21.67;14.38;;;;;;;1.79;74.12;96521.06;4978191;28;20085;-78
2021/03/19 03:58:52;;;;;;;21.27;15.18;;;;;;;1.76;73.77;96516.19;4978311;28;20448;-78
2021/03/19 04:01:19;;;;;;;27.90;16.58;;;;;;;1.75;74.13;96522.28;4977670;28;20075;-79
2021/03/19 04:03:47;;;;;;;25.40;16.48;;;;;;;1.77;74.06;96520.38;4977880;28;20524;-78
2021/03/19 04:06:14;;;;;;;22.40;15.90;;;;;;;1.76;73.78;96509.28;4977918;28;20058;-78
2021/03/19 04:08:41;;;;;;;23.40;16.23;;;;;;;1.76;73.90;96521.34;4978057;28;20078;-78
2021/03/19 04:11:12;;;;;;;24.83;16.67;;;;;;;1.78;73.94;96519.47;4977882;28;20130;-78
2021/03/19 04:13:40;;;;;;;23.92;15.27;;;;;;;1.79;73.89;96519.34;4977763;28;20050;-79
2021/03/19 04:16:07;;;;;;;21.13;15.18;;;;;;;1.80;73.81;96520.97;4977881;28;20050;-78
2021/03/19 04:18:35;;;;;;;22.92;14.57;;;;;;;1.79;73.81;96521.06;4977488;28;20137;-78
2021/03/19 04:21:07;;;;;;;22.50;15.35;;;;;;;1.78;73.94;96525.41;4977470;28;20055;-78
2021/03/19 04:23:36;;;;;;;22.90;15.60;;;;;;;1.79;74.32;96519.34;4977705;28;20057;-78
2021/03/19 04:26:04;;;;;;;22.50;15.80;;;;;;;1.82;73.80;96518.25;4977518;28;20497;-80
2021/03/19 04:28:33;;;;;;;23.67;14.95;;;;;;;1.83;74.09;96520.69;4977603;28;20441;-78
2021/03/19 04:31:01;;;;;;;26.25;16.23;;;;;;;1.83;73.90;96514.72;4977233;28;20057;-78
2021/03/19 04:33:28;;;;;;;26.92;16.50;;;;;;;1.84;73.80;96522.31;4976991;28;20050;-78
2021/03/19 04:36:03;;;;;;;23.27;15.75;;;;;;;1.85;73.84;96521.38;4978045;28;20047;-78
2021/03/19 04:38:29;;;;;;;27.00;17.08;;;;;;;1.83;73.61;96537.88;4977075;28;20051;-78
2021/03/19 04:40:56;;;;;;;21.60;15.30;;;;;;;1.79;73.74;96531.34;4977918;28;20047;-78
2021/03/19 04:43:23;;;;;;;22.92;15.77;;;;;;;1.78;73.94;96535.69;4977419;28;20050;-78
2021/03/19 04:45:49;;;;;;;23.75;16.95;;;;;;;1.80;74.41;96536.38;4977318;28;20137;-78
2021/03/19 04:48:17;;;;;;;23.23;16.15;;;;;;;1.82;74.17;96534.50;4977354;28;20047;-78
2021/03/19 04:50:43;;;;;;;20.73;14.63;;;;;;;1.83;74.06;96532.72;4977256;28;20501;-79
2021/03/19 04:53:10;;;;;;;25.48;15.75;;;;;;;1.82;74.03;96525.97;4977070;28;20413;-78
2021/03/19 04:55:37;;;;;;;22.90;15.95;;;;;;;1.80;73.94;96530.44;4976775;28;20137;-78
2021/03/19 04:58:03;;;;;;;22.08;14.48;;;;;;;1.80;74.03;96535.56;4977037;28;20572;-77
2021/03/19 05:00:30;;;;;;;29.08;16.92;;;;;;;1.79;74.18;96533.94;4976625;28;20055;-78
2021/03/19 05:02:56;;;;;;;20.60;15.20;;;;;;;1.78;74.01;96540.84;4976863;28;20051;-78
2021/03/19 05:05:28;;;;;;;27.08;16.27;;;;;;;1.77;74.32;96536.66;4977065;28;20476;-78
2021/03/19 05:07:58;;;;;;;26.23;15.57;;;;;;;1.75;74.19;96538.53;4976793;28;20055;-77
2021/03/19 05:10:28;;;;;;;24.20;17.50;;;;;;;1.75;74.09;96538.53;4976757;28;20042;-78
2021/03/19 05:12:56;;;;;;;23.38;15.65;;;;;;;1.76;74.06;96536.78;4975914;28;20054;-79
2021/03/19 05:15:23;;;;;;;22.83;15.45;;;;;;;1.76;74.31;96540.16;4976342;28;20505;-81
2021/03/19 05:17:50;;;;;;;23.02;16.50;;;;;;;1.77;74.21;96540.97;4976651;28;20051;-78
2021/03/19 05:20:18;;;;;;;28.30;18.30;;;;;;;1.75;73.99;96541.09;4975981;28;20047;-78
2021/03/19 05:22:46;;;;;;;24.75;17.80;;;;;;;1.75;74.07;96542.84;4975714;28;20043;-78
2021/03/19 05:25:16;;;;;;;28.70;18.58;;;;;;;1.72;74.62;96543.91;4975551;28;20769;-78
2021/03/19 05:27:43;;;;;;;26.45;18.35;;;;;;;1.74;74.71;96546.38;4976104;28;20059;-78
2021/03/19 05:30:13;;;;;;;26.30;18.02;;;;;;;1.75;74.41;96553.13;4975927;28;20050;-77
2021/03/19 05:32:41;;;;;;;29.13;19.38;;;;;;;1.75;74.35;96548.00;4975893;28;20062;-80
2021/03/19 05:35:11;;;;;;;24.85;17.63;;;;;;;1.76;74.52;96539.34;4975791;28;20114;-78
2021/03/19 05:37:38;;;;;;;25.77;18.02;;;;;;;1.77;74.07;96538.38;4975836;28;20082;-78
2021/03/19 05:40:11;;;;;;;27.33;18.27;;;;;;;1.75;74.26;96542.84;4975710;28;20046;-77
2021/03/19 05:42:38;;;;;;;26.05;17.42;;;;;;;1.77;74.57;96546.09;4975987;28;20051;-78
2021/03/19 05:45:21;;;;;;;27.67;18.55;;;;;;;1.80;74.47;96543.28;4976045;28;20440;-78
2021/03/19 05:47:49;;;;;;;;;;;;;;;1.83;74.79;96546.41;4976396;28;20097;-78
2021/03/19 05:50:24;;;;;;;26.15;18.27;;;;;;;1.81;74.24;96545.72;4975090;28;19972;-78
2021/03/19 05:52:51;;;;;;;25.15;17.13;;;;;;;1.81;74.32;96552.63;4975425;28;20446;-78
2021/03/19 05:55:22;;;;;;;28.02;18.00;;;;;;;1.80;74.47;96554.38;4975698;28;20054;-78
2021/03/19 05:57:55;;;;;;;29.58;18.45;;;;;;;1.81;74.66;96553.44;4976042;28;20050;-78
2021/03/19 06:00:24;;;;;;;27.88;18.38;;;;;;;1.81;74.63;96552.63;4975396;28;20435;-78
2021/03/19 06:02:51;;;;;;;30.92;18.35;;;;;;;1.82;74.53;96559.41;4975138;28;20054;-78
2021/03/19 06:05:20;;;;;;;27.65;18.15;;;;;;;1.82;74.58;96559.41;4975327;28;20129;-78
2021/03/19 06:07:49;;;;;;;25.70;17.58;;;;;;;1.82;74.37;96565.38;4975614;28;20138;-78
2021/03/19 06:10:29;;;;;;;25.40;17.17;;;;;;;1.84;74.38;96562.69;4975363;28;20051;-78
2021/03/19 06:13:10;;;;;;;26.48;18.92;;;;;;;1.83;74.50;96571.31;4975253;28;20059;-78
2021/03/19 06:15:39;;;;;;;26.90;18.40;;;;;;;1.84;74.42;96576.34;4975131;28;20424;-78
2021/03/19 06:18:18;;;;;;;26.75;18.33;;;;;;;1.85;74.47;96569.44;4975570;28;20073;-78
2021/03/19 06:20:55;;;;;;;29.92;18.17;;;;;;;1.82;74.60;96575.66;4975191;28;20407;-78
2021/03/19 06:23:25;;;;;;;30.25;18.90;;;;;;;1.81;74.53;96578.34;4975459;28;20062;-78
2021/03/19 06:26:01;;;;;;;28.80;19.52;;;;;;;1.79;74.67;96575.09;4975526;28;20051;-77
2021/03/19 06:28:30;;;;;;;32.72;20.08;;;;;;;1.81;74.59;96578.34;4976057;28;20043;-79
2021/03/19 06:31:22;;;;;;;28.52;19.08;;;;;;;1.83;74.93;96579.03;4975063;28;20414;-77
2021/03/19 06:34:07;;;;;;;23.95;17.42;;;;;;;1.87;74.71;96579.59;4971734;28;20417;-80
2021/03/19 06:36:50;;;;;;;25.55;17.40;;;;;;;1.87;74.54;96575.25;4974470;28;20051;-77
2021/03/19 06:39:22;;;;;;;26.90;17.45;;;;;;;1.84;74.31;96571.19;4975314;28;20429;-79
2021/03/19 06:42:12;;;;;;;28.52;18.65;;;;;;;1.88;74.24;96576.91;4974894;28;20051;-78
2021/03/19 06:44:40;;;;;;;29.23;18.08;;;;;;;1.90;74.36;96577.56;4975393;28;20077;-77
2021/03/19 06:47:09;;;;;;;25.45;17.70;;;;;;;1.92;73.79;96583.41;4975387;28;20051;-78
2021/03/19 06:49:52;;;;;;;24.85;17.55;;;;;;;1.95;74.52;96585.75;4976275;28;20055;-77
2021/03/19 06:52:27;;;;;;;28.15;18.92;;;;;;;1.98;74.06;96584.66;4975273;28;20062;-76
2021/03/19 06:54:56;;;;;;;28.05;19.92;;;;;;;1.99;74.20;96581.97;4974468;28;20057;-77
2021/03/19 06:57:26;;;;;;;29.70;18.85;;;;;;;1.99;74.04;96578.56;4974932;28;20050;-77
2021/03/19 06:59:53;;;;;;;27.70;18.02;;;;;;;2.00;73.47;96582.78;4975411;28;20062;-77
2021/03/19 07:02:58;;;;;;;25.95;17.73;;;;;;;2.01;73.97;96579.25;4975361;28;20141;-76
2021/03/19 07:05:50;;;;;;;30.67;18.25;;;;;;;2.04;73.75;96581.56;4974293;28;20082;-76
2021/03/19 07:08:25;;;;;;;24.02;16.95;;;;;;;2.01;73.59;96580.09;4968337;28;20494;-77
2021/03/19 07:11:12;;;;;;;29.33;19.08;;;;;;;2.00;73.68;96588.72;4975647;28;20046;-79
2021/03/19 07:13:57;;;;;;;28.85;18.35;;;;;;;2.03;73.94;96580.78;4973682;28;20050;-77
2021/03/19 07:16:32;;;;;;;23.02;16.95;;;;;;;2.03;73.38;96593.63;4975534;28;20125;-77
2021/03/19 07:19:13;;;;;;;24.40;17.05;;;;;;;2.04;73.41;96595.25;4974921;28;20425;-77
2021/03/19 07:21:58;;;;;;;23.55;16.77;;;;;;;2.05;73.25;96598.63;4967700;28;20047;-77
2021/03/19 07:25:01;;;;;;;21.52;16.75;;;;;;;2.04;73.42;96600.41;4964426;28;20463;-76
2021/03/19 07:27:40;;;;;;;25.05;16.90;;;;;;;2.05;74.08;96593.50;4961281;28;20054;-77
2021/03/19 07:30:18;;;;;;;29.20;17.33;;;;;;;2.06;73.57;96603.66;4975681;28;20058;-77
2021/03/19 07:33:17;;;;;;;24.20;16.45;;;;;;;2.09;73.82;96612.06;4974856;28;20055;-77
2021/03/19 07:36:00;;;;;;;29.15;18.25;;;;;;;2.06;73.29;96610.56;4975407;28;20078;-77
2021/03/19 07:38:52;;;;;;;21.00;15.65;;;;;;;2.07;73.70;96614.75;4974719;28;20051;-78
2021/03/19 07:41:35;;;;;;;22.30;15.50;;;;;;;2.10;73.33;96611.09;4961619;28;20166;-77
2021/03/19 07:44:16;;;;;;;;;;;;;;;2.13;73.56;96610.88;4976866;28;20051;-76
2021/03/19 07:46:55;;;;;;;23.05;16.25;;;;;;;2.11;73.49;96612.75;4977056;28;19933;-77
2021/03/19 07:49:44;;;;;;;22.27;16.88;;;;;;;2.14;73.87;96617.63;4977076;28;20058;-76
2021/03/19 07:52:28;;;;;;;25.80;18.15;;;;;;;2.18;73.51;96617.25;4976320;28;20050;-77
2021/03/19 07:55:01;;;;;;;26.33;17.50;;;;;;;2.24;73.63;96610.78;4975183;28;20424;-76
2021/03/19 07:57:36;;;;;;;24.27;18.33;;;;;;;2.29;73.30;96618.09;4975683;28;20070;-76
2021/03/19 08:00:15;;;;;;;24.92;17.52;;;;;;;2.34;73.52;96611.63;4975168;28;20063;-77
2021/03/19 08:03:10;;;;;;;24.08;18.42;;;;;;;2.39;73.74;96613.81;4958229;28;20061;-77
2021/03/19 08:05:45;;;;;;;26.83;17.88;;;;;;;2.39;73.57;96614.63;4956456;29;20051;-78
2021/03/19 08:08:19;;;;;;;26.90;17.52;;;;;;;2.41;73.68;96612.75;4956386;29;20055;-77
2021/03/19 08:10:58;;;;;;;22.63;17.00;;;;;;;2.44;73.76;96622.75;4956665;29;20047;-76
2021/03/19 08:13:35;;;;;;;26.45;17.45;;;;;;;2.46;73.46;96614.91;4955223;28;20059;-77
2021/03/19 08:16:09;;;;;;;22.58;17.48;;;;;;;2.47;73.28;96614.78;4960600;29;20110;-77
2021/03/19 08:18:46;;;;;;;20.40;15.13;;;;;;;2.50;73.45;96626.59;4960726;29;20058;-77
2021/03/19 08:21:24;;;;;;;24.67;16.30;;;;;;;2.49;72.96;96622.38;4960089;29;20061;-77
2021/03/19 08:24:03;;;;;;;21.45;16.23;;;;;;;2.47;73.06;96625.09;4967537;28;20054;-77
2021/03/19 08:26:48;;;;;;;19.15;14.27;;;;;;;2.47;73.20;96619.94;4969937;28;20043;-77
2021/03/19 08:29:23;;;;;;;21.38;15.63;;;;;;;2.47;72.91;96627.66;4960172;28;20506;-76
2021/03/19 08:31:55;;;;;;;20.33;16.00;;;;;;;2.47;73.02;96630.25;4959899;29;20078;-77
2021/03/19 08:34:33;;;;;;;19.33;15.05;;;;;;;2.48;73.17;96631.84;4959994;29;20514;-77
2021/03/19 08:37:00;;;;;;;17.10;13.25;;;;;;;2.52;72.63;96634.19;4959484;28;20055;-79
2021/03/19 08:39:33;;;;;;;16.02;12.98;;;;;;;2.54;72.79;96638.25;4959961;28;20051;-77
2021/03/19 08:42:02;;;;;;;;;;;;;;;2.58;72.56;96629.34;4978840;28;20505;-77
2021/03/19 08:44:34;;;;;;;18.98;13.65;;;;;;;2.56;72.30;96635.53;4978743;28;19929;-76
2021/03/19 08:47:13;;;;;;;18.33;12.98;;;;;;;2.58;71.77;96638.78;4979069;28;20070;-77
2021/03/19 08:49:45;;;;;;;13.27;10.57;;;;;;;2.59;71.41;96635.28;4963567;28;20059;-78
2021/03/19 08:52:34;;;;;;;12.95;10.25;;;;;;;2.62;70.61;96635.00;4958032;29;20086;-78
2021/03/19 08:55:22;;;;;;;15.98;11.63;;;;;;;2.68;70.90;96639.66;4956292;29;20431;-77
2021/03/19 08:57:51;;;;;;;13.93;10.43;;;;;;;2.72;71.09;96641.03;4957780;28;20051;-76
2021/03/19 09:00:47;;;;;;;14.40;11.45;;;;;;;2.76;70.68;96637.25;4957918;29;20051;-76
2021/03/19 09:03:52;;;;;;;12.60;10.07;;;;;;;2.82;70.29;96641.03;4958548;29;20114;-78
2021/03/19 09:06:24;;;;;;;13.07;10.98;;;;;;;2.87;70.47;96644.03;4958315;29;20047;-75
2021/03/19 09:09:00;;;;;;;14.75;11.45;;;;;;;2.91;71.08;96642.00;4958631;29;20051;-77
2021/03/19 09:12:00;;;;;;;15.43;11.05;;;;;;;2.92;71.09;96638.50;4958542;28;20483;-77
2021/03/19 09:14:39;;;;;;;12.32;9.35;;;;;;;2.94;70.63;96649.47;4957744;28;20142;-76
2021/03/19 09:17:11;;;;;;;12.20;9.77;;;;;;;2.95;70.58;96645.94;4959692;29;20051;-75
2021/03/19 09:19:44;;;;;;;14.80;11.50;;;;;;;2.97;70.95;96649.19;4959228;29;20058;-76
2021/03/19 09:22:46;;;;;;;14.93;11.55;;;;;;;2.98;71.17;96656.00;4959116;29;20277;-74
2021/03/19 09:25:23;;;;;;;15.45;12.15;;;;;;;3.01;71.59;96656.53;4975079;28;20053;-76
2021/03/19 09:28:20;;;;;;;15.45;11.70;;;;;;;3.02;71.43;96654.78;4975822;28;20545;-75
2021/03/19 09:30:53;;;;;;;15.60;11.75;;;;;;;3.03;71.88;96661.56;4956381;28;20047;-74
2021/03/19 09:33:56;;;;;;;17.27;11.43;;;;;;;3.05;72.72;96662.25;4956003;29;20055;-74
2021/03/19 09:36:50;;;;;;;15.38;12.32;;;;;;;3.06;72.60;96663.84;4957021;29;20071;-76
2021/03/19 09:40:02;;;;;;;17.58;13.18;;;;;;;3.06;72.79;96661.28;4959918;29;20047;-89
2021/03/19 09:42:52;;;;;;;14.13;11.50;;;;;;;3.05;72.72;96662.25;4962388;29;20053;-76
2021/03/19 09:45:38;;;;;;;14.32;11.27;;;;;;;3.01;72.30;96661.69;4958444;28;20055;-77
2021/03/19 09:48:27;;;;;;;16.27;13.00;;;;;;;3.00;73.18;96660.06;4959268;29;20568;-75
2021/03/19 09:50:59;;;;;;;17.23;13.05;;;;;;;3.01;72.41;96671.19;4956134;28;20484;-77
2021/03/19 09:53:31;;;;;;;16.77;11.90;;;;;;;3.02;72.64;96675.41;4958260;29;20051;-76
2021/03/19 09:55:59;;;;;;;18.10;13.25;;;;;;;3.00;73.19;96674.72;4958632;29;20065;-75
2021/03/19 09:58:36;;;;;;;19.17;14.13;;;;;;;2.97;73.20;96669.81;4958747;29;20055;-76
2021/03/19 10:01:09;;;;;;;17.15;12.70;;;;;;;2.96;73.07;96676.75;4964650;28;20054;-77
2021/03/19 10:03:42;;;;;;;17.10;13.68;;;;;;;2.95;73.00;96674.28;4972318;28;20066;-76
2021/03/19 10:06:18;;;;;;;17.48;13.82;;;;;;;2.93;73.70;96679.59;4960673;28;20143;-90
2021/03/19 10:08:49;;;;;;;18.13;13.35;;;;;;;2.94;73.55;96675.25;4960687;28;20079;-78
2021/03/19 10:11:17;;;;;;;17.67;12.80;;;;;;;2.94;73.20;96685.56;4958361;29;20060;-77
2021/03/19 10:13:45;;;;;;;18.02;12.82;;;;;;;2.95;73.48;96679.44;4958007;28;20106;-77
2021/03/19 10:16:22;;;;;;;16.10;12.80;;;;;;;2.98;73.42;96681.78;4958153;28;20097;-77
2021/03/19 10:18:50;;;;;;;16.73;13.00;;;;;;;3.00;73.50;96678.09;4976833;28;20050;-77
2021/03/19 10:21:19;;;;;;;14.45;12.07;;;;;;;3.03;73.23;96674.44;4967390;28;20043;-77
2021/03/19 10:23:53;;;;;;;15.68;12.23;;;;;;;3.11;73.14;96682.34;4956886;28;20054;-77
2021/03/19 10:26:24;;;;;;;17.80;12.85;;;;;;;3.26;73.83;96683.56;4957539;29;20051;-76
2021/03/19 10:29:02;;;;;;;16.80;12.57;;;;;;;3.38;73.01;96678.28;4960465;29;20055;-79
2021/03/19 10:31:40;;;;;;;17.38;12.30;;;;;;;3.47;72.79;96677.47;4959294;29;20043;-78
2021/03/19 10:34:17;;;;;;;15.32;12.05;;;;;;;3.49;71.69;96681.53;4975946;28;20058;-79
2021/03/19 10:36:53;;;;;;;16.52;12.00;;;;;;;3.56;72.43;96674.06;4977495;28;20102;-78
2021/03/19 10:39:29;;;;;;;15.30;12.30;;;;;;;3.63;72.19;96671.75;4960501;28;20051;-77
2021/03/19 10:42:13;;;;;;;17.05;11.98;;;;;;;3.68;72.16;96680.75;4966816;28;20066;-78
2021/03/19 10:44:52;;;;;;;14.63;11.32;;;;;;;3.70;71.57;96678.84;4977385;28;20070;-77
2021/03/19 10:47:26;;;;;;;16.35;11.25;;;;;;;3.69;71.20;96686.69;4977871;28;20133;-77
2021/03/19 10:49:56;;;;;;;16.25;12.13;;;;;;;3.67;71.50;96689.44;4977684;28;20057;-77
2021/03/19 10:52:30;;;;;;;12.88;10.35;;;;;;;3.64;70.98;96689.69;4977459;28;20050;-77
2021/03/19 10:55:02;;;;;;;14.13;10.50;;;;;;;3.57;71.48;96683.47;4976913;28;20051;-77
2021/03/19 10:57:34;;;;;;;13.40;9.75;;;;;;;3.55;70.68;96697.44;4977804;28;20051;-77
2021/03/19 11:00:31;;;;;;;13.88;9.77;;;;;;;3.47;71.37;96688.59;4977397;28;20057;-78
2021/03/19 11:02:59;;;;;;;10.70;8.45;;;;;;;3.43;70.79;96694.16;4977478;28;20046;-77
2021/03/19 11:05:27;;;;;;;11.15;8.10;;;;;;;3.35;70.77;96691.47;4976179;28;20051;-77
2021/03/19 11:07:54;;;;;;;10.95;8.00;;;;;;;3.28;70.97;96683.44;4977092;28;20054;-77
2021/03/19 11:10:25;;;;;;;12.43;9.25;;;;;;;3.30;71.93;96697.00;4976050;28;20069;-76
2021/03/19 11:13:20;;;;;;;12.95;8.77;;;;;;;3.36;71.25;96705.97;4961815;28;20461;-77
2021/03/19 11:15:51;;;;;;;10.90;8.18;;;;;;;3.37;71.34;96697.28;4957380;29;20058;-76
2021/03/19 11:18:26;;;;;;;9.48;7.82;;;;;;;3.41;71.34;96698.63;4956691;28;20050;-77
2021/03/19 11:20:57;;;;;;;11.13;8.65;;;;;;;3.44;71.29;96700.97;4956271;28;20047;-77
2021/03/19 11:23:27;;;;;;;11.57;8.68;;;;;;;3.47;71.33;96700.69;4956815;28;20051;-77
2021/03/19 11:25:56;;;;;;;11.00;8.93;;;;;;;3.49;71.05;96709.09;4957193;29;20114;-77
2021/03/19 11:28:34;;;;;;;11.25;9.43;;;;;;;3.49;71.06;96709.09;4965694;28;20170;-77
2021/03/19 11:31:29;;;;;;;12.35;9.05;;;;;;;3.44;71.50;96708.69;4977058;28;20046;-77
2021/03/19 11:34:07;;;;;;;15.38;9.98;;;;;;;3.41;71.48;96714.13;4941575;28;20061;-77
2021/03/19 11:36:57;;;;;;;10.82;9.25;;;;;;;3.42;72.43;96714.00;4975761;28;20074;-77
2021/03/19 11:39:34;;;;;;;11.35;8.80;;;;;;;3.43;71.45;96717.38;4976471;28;20070;-76
2021/03/19 11:42:04;;;;;;;10.52;9.05;;;;;;;3.39;71.37;96721.16;4976940;28;20489;-78
2021/03/19 11:44:31;;;;;;;11.10;9.05;;;;;;;3.34;71.69;96723.34;4959850;28;20429;-77
2021/03/19 11:47:00;;;;;;;12.25;9.95;;;;;;;3.30;72.26;96723.63;4956143;29;20077;-78
2021/03/19 11:49:26;;;;;;;12.75;10.70;;;;;;;3.28;72.43;96729.84;4958047;28;20051;-76
2021/03/19 11:51:54;;;;;;;12.50;10.15;;;;;;;3.24;72.14;96728.50;4969725;28;20548;-76
2021/03/19 11:54:21;;;;;;;16.88;10.43;;;;;;;3.18;71.71;96732.41;4978774;28;20065;-76
2021/03/19 11:56:48;;;;;;;12.82;10.07;;;;;;;3.11;71.81;96733.88;4979147;28;20054;-76
2021/03/19 11:59:15;;;;;;;13.73;10.95;;;;;;;3.05;72.31;96736.97;4979606;28;20080;-78
2021/03/19 12:01:42;;;;;;;12.45;9.95;;;;;;;2.98;72.30;96735.88;4979273;28;20086;-76